Saint-Jerome, Canada
Current Conditions -  °F | °C
As of 7:00 AM on Monday 20 Oct 2014 (Local Time) from CYMX Reporting Station
Broken Clouds Broken Clouds  
Wind Chill: 34°   Ceiling: 12000
Heat Index: 34°   Visibility: 45mi
Dew Point: 28°   Wind: 3mph
Humidity: 81%   Direction: 220°SW
Pressure: 29.98"   Gusts: NA
Location:  45.77°N, 74°W
Report Text: CYMX 201100Z 22003KT 45SM FEW015 FEW035 BKN120 01/M02 A2998 RMK CF1SC2AC5 CF TR SLP155
Loading
Personal Weather Stations






























Interactive Weather Map New forecast layout! Learn more

10-Day Weather Forecast

Advertisements
Track Severe Weather on mobile